sensor_id;sensor_type;location;lat;lon;timestamp;P1;durP1;ratioP1;P2;durP2;ratioP2
20794;SDS011;28087;-33.874;151.240;2024-03-29T00:02:03;8.07;;;4.90;;
20794;SDS011;28087;-33.874;151.240;2024-03-29T00:05:07;9.20;;;5.00;;
20794;SDS011;28087;-33.874;151.240;2024-03-29T00:08:10;8.13;;;5.20;;
20794;SDS011;28087;-33.874;151.240;2024-03-29T00:11:12;6.35;;;4.47;;
20794;SDS011;28087;-33.874;151.240;2024-03-29T00:14:15;7.88;;;5.10;;
20794;SDS011;28087;-33.874;151.240;2024-03-29T00:17:17;8.23;;;4.90;;
20794;SDS011;28087;-33.874;151.240;2024-03-29T00:20:21;7.15;;;4.72;;
20794;SDS011;28087;-33.874;151.240;2024-03-29T00:23:23;6.80;;;4.53;;
20794;SDS011;28087;-33.874;151.240;2024-03-29T00:26:25;7.80;;;4.47;;
20794;SDS011;28087;-33.874;151.240;2024-03-29T00:29:27;7.45;;;4.68;;
20794;SDS011;28087;-33.874;151.240;2024-03-29T00:32:29;7.05;;;4.60;;
20794;SDS011;28087;-33.874;151.240;2024-03-29T00:35:33;7.57;;;4.55;;
20794;SDS011;28087;-33.874;151.240;2024-03-29T00:38:34;6.68;;;4.90;;
20794;SDS011;28087;-33.874;151.240;2024-03-29T00:41:36;7.10;;;4.85;;
20794;SDS011;28087;-33.874;151.240;2024-03-29T00:44:38;6.05;;;4.80;;
20794;SDS011;28087;-33.874;151.240;2024-03-29T00:47:41;8.50;;;5.07;;
20794;SDS011;28087;-33.874;151.240;2024-03-29T00:50:45;7.40;;;4.90;;
20794;SDS011;28087;-33.874;151.240;2024-03-29T00:53:46;9.27;;;5.22;;
20794;SDS011;28087;-33.874;151.240;2024-03-29T00:56:48;7.00;;;4.65;;
20794;SDS011;28087;-33.874;151.240;2024-03-29T00:59:51;7.20;;;4.65;;
20794;SDS011;28087;-33.874;151.240;2024-03-29T01:02:53;7.53;;;4.40;;
20794;SDS011;28087;-33.874;151.240;2024-03-29T01:05:57;5.95;;;4.38;;
20794;SDS011;28087;-33.874;151.240;2024-03-29T01:08:58;6.38;;;4.40;;
20794;SDS011;28087;-33.874;151.240;2024-03-29T01:12:00;9.50;;;4.70;;
20794;SDS011;28087;-33.874;151.240;2024-03-29T01:15:03;6.13;;;4.40;;
20794;SDS011;28087;-33.874;151.240;2024-03-29T01:18:06;7.55;;;4.40;;
20794;SDS011;28087;-33.874;151.240;2024-03-29T01:21:10;7.10;;;4.30;;
20794;SDS011;28087;-33.874;151.240;2024-03-29T01:24:13;8.45;;;4.53;;
20794;SDS011;28087;-33.874;151.240;2024-03-29T01:27:15;7.18;;;4.57;;
20794;SDS011;28087;-33.874;151.240;2024-03-29T01:30:18;7.28;;;4.93;;
20794;SDS011;28087;-33.874;151.240;2024-03-29T01:33:21;7.95;;;4.55;;
20794;SDS011;28087;-33.874;151.240;2024-03-29T01:36:28;7.45;;;4.38;;
20794;SDS011;28087;-33.874;151.240;2024-03-29T01:39:31;7.68;;;4.38;;
20794;SDS011;28087;-33.874;151.240;2024-03-29T01:42:35;6.72;;;4.05;;
20794;SDS011;28087;-33.874;151.240;2024-03-29T01:45:39;9.13;;;4.28;;
20794;SDS011;28087;-33.874;151.240;2024-03-29T01:48:47;8.93;;;4.45;;
20794;SDS011;28087;-33.874;151.240;2024-03-29T01:51:56;7.50;;;4.40;;
20794;SDS011;28087;-33.874;151.240;2024-03-29T01:55:04;6.45;;;4.00;;
20794;SDS011;28087;-33.874;151.240;2024-03-29T01:58:10;6.65;;;4.20;;
20794;SDS011;28087;-33.874;151.240;2024-03-29T02:01:17;5.75;;;4.10;;
20794;SDS011;28087;-33.874;151.240;2024-03-29T02:04:27;7.32;;;4.60;;
20794;SDS011;28087;-33.874;151.240;2024-03-29T02:07:38;6.60;;;4.10;;
20794;SDS011;28087;-33.874;151.240;2024-03-29T02:10:44;5.97;;;4.00;;
20794;SDS011;28087;-33.874;151.240;2024-03-29T02:13:52;6.93;;;4.25;;
20794;SDS011;28087;-33.874;151.240;2024-03-29T02:16:54;7.47;;;4.35;;
20794;SDS011;28087;-33.874;151.240;2024-03-29T02:19:53;6.82;;;4.40;;
20794;SDS011;28087;-33.874;151.240;2024-03-29T02:23:02;7.65;;;4.38;;
20794;SDS011;28087;-33.874;151.240;2024-03-29T02:26:11;7.97;;;4.18;;
20794;SDS011;28087;-33.874;151.240;2024-03-29T02:29:18;5.45;;;3.92;;
20794;SDS011;28087;-33.874;151.240;2024-03-29T02:32:23;6.88;;;4.30;;
20794;SDS011;28087;-33.874;151.240;2024-03-29T02:35:29;8.05;;;4.00;;
20794;SDS011;28087;-33.874;151.240;2024-03-29T02:38:34;6.28;;;4.13;;
20794;SDS011;28087;-33.874;151.240;2024-03-29T02:41:40;7.15;;;4.15;;
20794;SDS011;28087;-33.874;151.240;2024-03-29T02:44:44;7.10;;;3.90;;
20794;SDS011;28087;-33.874;151.240;2024-03-29T02:47:51;7.88;;;4.15;;
20794;SDS011;28087;-33.874;151.240;2024-03-29T02:50:56;7.13;;;4.00;;
20794;SDS011;28087;-33.874;151.240;2024-03-29T02:53:59;6.15;;;4.10;;
20794;SDS011;28087;-33.874;151.240;2024-03-29T02:57:05;12.90;;;5.97;;
20794;SDS011;28087;-33.874;151.240;2024-03-29T03:00:08;7.13;;;4.70;;
20794;SDS011;28087;-33.874;151.240;2024-03-29T03:03:14;7.30;;;4.10;;
20794;SDS011;28087;-33.874;151.240;2024-03-29T03:06:19;6.72;;;3.85;;
20794;SDS011;28087;-33.874;151.240;2024-03-29T03:09:22;8.68;;;4.40;;
20794;SDS011;28087;-33.874;151.240;2024-03-29T03:12:44;6.53;;;4.35;;
20794;SDS011;28087;-33.874;151.240;2024-03-29T03:15:48;9.07;;;4.65;;
20794;SDS011;28087;-33.874;151.240;2024-03-29T03:18:52;10.10;;;4.70;;
20794;SDS011;28087;-33.874;151.240;2024-03-29T03:21:56;5.53;;;3.88;;
20794;SDS011;28087;-33.874;151.240;2024-03-29T03:25:00;6.60;;;3.83;;
20794;SDS011;28087;-33.874;151.240;2024-03-29T03:28:06;5.90;;;3.90;;
20794;SDS011;28087;-33.874;151.240;2024-03-29T03:31:09;7.05;;;4.00;;
20794;SDS011;28087;-33.874;151.240;2024-03-29T03:34:14;6.53;;;3.85;;
20794;SDS011;28087;-33.874;151.240;2024-03-29T03:37:18;5.18;;;3.60;;
20794;SDS011;28087;-33.874;151.240;2024-03-29T03:40:23;6.50;;;4.00;;
20794;SDS011;28087;-33.874;151.240;2024-03-29T03:43:29;6.30;;;3.80;;
20794;SDS011;28087;-33.874;151.240;2024-03-29T03:46:32;7.10;;;3.92;;
20794;SDS011;28087;-33.874;151.240;2024-03-29T03:49:35;5.75;;;3.83;;
20794;SDS011;28087;-33.874;151.240;2024-03-29T03:52:40;5.82;;;3.75;;
20794;SDS011;28087;-33.874;151.240;2024-03-29T03:55:43;6.47;;;3.80;;
20794;SDS011;28087;-33.874;151.240;2024-03-29T03:58:50;6.15;;;3.70;;
20794;SDS011;28087;-33.874;151.240;2024-03-29T04:01:52;5.78;;;4.00;;
20794;SDS011;28087;-33.874;151.240;2024-03-29T04:04:56;6.63;;;3.70;;
20794;SDS011;28087;-33.874;151.240;2024-03-29T04:07:59;5.63;;;3.63;;
20794;SDS011;28087;-33.874;151.240;2024-03-29T04:11:03;5.25;;;3.58;;
20794;SDS011;28087;-33.874;151.240;2024-03-29T04:14:08;5.43;;;3.63;;
20794;SDS011;28087;-33.874;151.240;2024-03-29T04:17:12;6.00;;;3.85;;
20794;SDS011;28087;-33.874;151.240;2024-03-29T04:20:15;7.13;;;3.67;;
20794;SDS011;28087;-33.874;151.240;2024-03-29T04:23:21;8.05;;;3.88;;
20794;SDS011;28087;-33.874;151.240;2024-03-29T04:26:25;6.88;;;3.50;;
20794;SDS011;28087;-33.874;151.240;2024-03-29T04:29:32;5.50;;;3.65;;
20794;SDS011;28087;-33.874;151.240;2024-03-29T04:32:37;6.38;;;3.67;;
20794;SDS011;28087;-33.874;151.240;2024-03-29T04:35:40;7.03;;;4.07;;
20794;SDS011;28087;-33.874;151.240;2024-03-29T04:38:44;5.93;;;3.72;;
20794;SDS011;28087;-33.874;151.240;2024-03-29T04:41:50;5.88;;;3.80;;
20794;SDS011;28087;-33.874;151.240;2024-03-29T04:44:55;5.78;;;4.00;;
20794;SDS011;28087;-33.874;151.240;2024-03-29T04:47:59;7.00;;;3.80;;
20794;SDS011;28087;-33.874;151.240;2024-03-29T04:51:03;4.82;;;3.38;;
20794;SDS011;28087;-33.874;151.240;2024-03-29T04:54:08;6.35;;;3.70;;
20794;SDS011;28087;-33.874;151.240;2024-03-29T04:57:13;7.63;;;3.60;;
20794;SDS011;28087;-33.874;151.240;2024-03-29T05:00:19;6.30;;;4.00;;
20794;SDS011;28087;-33.874;151.240;2024-03-29T05:03:23;7.57;;;3.78;;
20794;SDS011;28087;-33.874;151.240;2024-03-29T05:06:29;5.80;;;3.28;;
20794;SDS011;28087;-33.874;151.240;2024-03-29T05:09:32;5.72;;;3.60;;
20794;SDS011;28087;-33.874;151.240;2024-03-29T05:12:37;5.55;;;3.58;;
20794;SDS011;28087;-33.874;151.240;2024-03-29T05:15:45;6.25;;;3.58;;
20794;SDS011;28087;-33.874;151.240;2024-03-29T05:18:49;6.22;;;3.72;;
20794;SDS011;28087;-33.874;151.240;2024-03-29T05:21:53;6.45;;;3.55;;
20794;SDS011;28087;-33.874;151.240;2024-03-29T05:24:57;5.43;;;3.25;;
20794;SDS011;28087;-33.874;151.240;2024-03-29T05:28:02;6.70;;;3.60;;
20794;SDS011;28087;-33.874;151.240;2024-03-29T05:31:13;5.35;;;3.45;;
20794;SDS011;28087;-33.874;151.240;2024-03-29T05:34:17;6.60;;;3.60;;
20794;SDS011;28087;-33.874;151.240;2024-03-29T05:37:24;6.72;;;3.75;;
20794;SDS011;28087;-33.874;151.240;2024-03-29T05:40:28;5.22;;;3.60;;
20794;SDS011;28087;-33.874;151.240;2024-03-29T05:43:26;6.68;;;3.97;;
20794;SDS011;28087;-33.874;151.240;2024-03-29T05:46:26;5.03;;;3.60;;
20794;SDS011;28087;-33.874;151.240;2024-03-29T05:49:32;6.43;;;3.70;;
20794;SDS011;28087;-33.874;151.240;2024-03-29T05:52:37;6.35;;;3.70;;
20794;SDS011;28087;-33.874;151.240;2024-03-29T05:55:41;7.45;;;3.65;;
20794;SDS011;28087;-33.874;151.240;2024-03-29T05:58:45;6.07;;;3.60;;
20794;SDS011;28087;-33.874;151.240;2024-03-29T06:01:51;6.00;;;3.63;;
20794;SDS011;28087;-33.874;151.240;2024-03-29T06:04:55;5.95;;;3.40;;
20794;SDS011;28087;-33.874;151.240;2024-03-29T06:08:00;6.47;;;3.90;;
20794;SDS011;28087;-33.874;151.240;2024-03-29T06:11:04;5.32;;;3.65;;
20794;SDS011;28087;-33.874;151.240;2024-03-29T06:14:08;6.65;;;3.90;;
20794;SDS011;28087;-33.874;151.240;2024-03-29T06:17:30;7.15;;;3.65;;
20794;SDS011;28087;-33.874;151.240;2024-03-29T06:20:34;7.22;;;3.78;;
20794;SDS011;28087;-33.874;151.240;2024-03-29T06:23:38;6.95;;;3.72;;
20794;SDS011;28087;-33.874;151.240;2024-03-29T06:26:42;6.28;;;3.80;;
20794;SDS011;28087;-33.874;151.240;2024-03-29T06:29:48;6.10;;;4.07;;
20794;SDS011;28087;-33.874;151.240;2024-03-29T06:32:55;9.15;;;3.95;;
20794;SDS011;28087;-33.874;151.240;2024-03-29T06:36:01;7.22;;;3.78;;
20794;SDS011;28087;-33.874;151.240;2024-03-29T06:39:05;6.68;;;3.70;;
20794;SDS011;28087;-33.874;151.240;2024-03-29T06:42:11;7.07;;;4.03;;
20794;SDS011;28087;-33.874;151.240;2024-03-29T06:45:17;6.95;;;4.03;;
20794;SDS011;28087;-33.874;151.240;2024-03-29T06:48:24;5.70;;;3.92;;
20794;SDS011;28087;-33.874;151.240;2024-03-29T06:51:29;7.18;;;3.72;;
20794;SDS011;28087;-33.874;151.240;2024-03-29T06:54:33;6.35;;;3.75;;
20794;SDS011;28087;-33.874;151.240;2024-03-29T06:57:40;5.80;;;3.50;;
20794;SDS011;28087;-33.874;151.240;2024-03-29T07:00:46;7.57;;;4.00;;
20794;SDS011;28087;-33.874;151.240;2024-03-29T07:03:51;5.85;;;4.10;;
20794;SDS011;28087;-33.874;151.240;2024-03-29T07:06:55;7.43;;;3.88;;
20794;SDS011;28087;-33.874;151.240;2024-03-29T07:09:59;7.05;;;4.05;;
20794;SDS011;28087;-33.874;151.240;2024-03-29T07:13:05;7.10;;;4.07;;
20794;SDS011;28087;-33.874;151.240;2024-03-29T07:16:09;8.15;;;4.00;;
20794;SDS011;28087;-33.874;151.240;2024-03-29T07:19:16;5.95;;;3.90;;
20794;SDS011;28087;-33.874;151.240;2024-03-29T07:22:19;6.28;;;3.92;;
20794;SDS011;28087;-33.874;151.240;2024-03-29T07:25:23;5.93;;;3.72;;
20794;SDS011;28087;-33.874;151.240;2024-03-29T07:28:27;7.68;;;4.05;;
20794;SDS011;28087;-33.874;151.240;2024-03-29T07:31:31;6.85;;;3.92;;
20794;SDS011;28087;-33.874;151.240;2024-03-29T07:34:37;5.38;;;3.65;;
20794;SDS011;28087;-33.874;151.240;2024-03-29T07:37:41;9.85;;;4.93;;
20794;SDS011;28087;-33.874;151.240;2024-03-29T07:40:48;9.85;;;6.20;;
20794;SDS011;28087;-33.874;151.240;2024-03-29T07:43:52;11.25;;;8.25;;
20794;SDS011;28087;-33.874;151.240;2024-03-29T07:46:52;17.65;;;15.75;;
20794;SDS011;28087;-33.874;151.240;2024-03-29T07:49:59;16.95;;;12.43;;
20794;SDS011;28087;-33.874;151.240;2024-03-29T07:53:04;7.68;;;5.47;;
20794;SDS011;28087;-33.874;151.240;2024-03-29T07:56:08;5.82;;;4.57;;
20794;SDS011;28087;-33.874;151.240;2024-03-29T07:59:14;8.50;;;4.72;;
20794;SDS011;28087;-33.874;151.240;2024-03-29T08:02:18;7.10;;;4.40;;
20794;SDS011;28087;-33.874;151.240;2024-03-29T08:05:26;5.93;;;4.30;;
20794;SDS011;28087;-33.874;151.240;2024-03-29T08:08:30;5.75;;;3.90;;
20794;SDS011;28087;-33.874;151.240;2024-03-29T08:11:34;8.85;;;4.35;;
20794;SDS011;28087;-33.874;151.240;2024-03-29T08:14:38;8.30;;;4.32;;
20794;SDS011;28087;-33.874;151.240;2024-03-29T08:17:42;6.63;;;4.03;;
20794;SDS011;28087;-33.874;151.240;2024-03-29T08:20:48;7.28;;;4.28;;
20794;SDS011;28087;-33.874;151.240;2024-03-29T08:23:53;7.10;;;4.00;;
20794;SDS011;28087;-33.874;151.240;2024-03-29T08:26:57;6.80;;;3.92;;
20794;SDS011;28087;-33.874;151.240;2024-03-29T08:30:03;5.90;;;3.90;;
20794;SDS011;28087;-33.874;151.240;2024-03-29T08:33:07;8.90;;;4.60;;
20794;SDS011;28087;-33.874;151.240;2024-03-29T08:36:13;7.13;;;4.38;;
20794;SDS011;28087;-33.874;151.240;2024-03-29T08:39:17;7.45;;;4.47;;
20794;SDS011;28087;-33.874;151.240;2024-03-29T08:42:21;7.15;;;4.00;;
20794;SDS011;28087;-33.874;151.240;2024-03-29T08:45:27;6.75;;;3.90;;
20794;SDS011;28087;-33.874;151.240;2024-03-29T08:48:28;6.95;;;4.10;;
20794;SDS011;28087;-33.874;151.240;2024-03-29T08:51:28;6.63;;;4.40;;
20794;SDS011;28087;-33.874;151.240;2024-03-29T08:54:32;7.55;;;4.18;;
20794;SDS011;28087;-33.874;151.240;2024-03-29T08:57:36;7.20;;;4.50;;
20794;SDS011;28087;-33.874;151.240;2024-03-29T09:00:41;6.10;;;4.35;;
20794;SDS011;28087;-33.874;151.240;2024-03-29T09:03:46;8.82;;;4.63;;
20794;SDS011;28087;-33.874;151.240;2024-03-29T09:06:54;7.05;;;4.20;;
20794;SDS011;28087;-33.874;151.240;2024-03-29T09:10:01;6.50;;;4.38;;
20794;SDS011;28087;-33.874;151.240;2024-03-29T09:13:05;8.98;;;4.60;;
20794;SDS011;28087;-33.874;151.240;2024-03-29T09:16:34;8.23;;;4.75;;
20794;SDS011;28087;-33.874;151.240;2024-03-29T09:19:34;6.68;;;4.30;;
20794;SDS011;28087;-33.874;151.240;2024-03-29T09:22:34;8.40;;;4.65;;
20794;SDS011;28087;-33.874;151.240;2024-03-29T09:25:40;7.55;;;4.50;;
20794;SDS011;28087;-33.874;151.240;2024-03-29T09:28:44;6.72;;;4.63;;
20794;SDS011;28087;-33.874;151.240;2024-03-29T09:31:44;9.52;;;4.85;;
20794;SDS011;28087;-33.874;151.240;2024-03-29T09:34:43;5.55;;;4.03;;
20794;SDS011;28087;-33.874;151.240;2024-03-29T09:38:02;5.60;;;4.30;;
20794;SDS011;28087;-33.874;151.240;2024-03-29T09:41:07;6.85;;;4.45;;
20794;SDS011;28087;-33.874;151.240;2024-03-29T09:44:15;7.00;;;4.43;;
20794;SDS011;28087;-33.874;151.240;2024-03-29T09:47:20;6.20;;;4.40;;
20794;SDS011;28087;-33.874;151.240;2024-03-29T09:50:27;7.07;;;4.40;;
20794;SDS011;28087;-33.874;151.240;2024-03-29T09:53:34;7.38;;;4.78;;
20794;SDS011;28087;-33.874;151.240;2024-03-29T09:56:38;6.45;;;4.30;;
20794;SDS011;28087;-33.874;151.240;2024-03-29T09:59:43;7.97;;;4.63;;
20794;SDS011;28087;-33.874;151.240;2024-03-29T10:02:48;6.75;;;4.70;;
20794;SDS011;28087;-33.874;151.240;2024-03-29T10:05:53;7.53;;;4.85;;
20794;SDS011;28087;-33.874;151.240;2024-03-29T10:09:00;7.05;;;4.50;;
20794;SDS011;28087;-33.874;151.240;2024-03-29T10:12:07;7.28;;;4.40;;
20794;SDS011;28087;-33.874;151.240;2024-03-29T10:15:11;7.03;;;4.28;;
20794;SDS011;28087;-33.874;151.240;2024-03-29T10:18:19;6.63;;;4.80;;
20794;SDS011;28087;-33.874;151.240;2024-03-29T10:21:25;9.18;;;4.93;;
20794;SDS011;28087;-33.874;151.240;2024-03-29T10:24:33;7.93;;;4.55;;
20794;SDS011;28087;-33.874;151.240;2024-03-29T10:27:36;7.90;;;4.60;;
20794;SDS011;28087;-33.874;151.240;2024-03-29T10:30:41;7.22;;;4.30;;
20794;SDS011;28087;-33.874;151.240;2024-03-29T10:33:45;6.43;;;4.50;;
20794;SDS011;28087;-33.874;151.240;2024-03-29T10:36:50;9.27;;;4.72;;
20794;SDS011;28087;-33.874;151.240;2024-03-29T10:39:56;7.20;;;4.95;;
20794;SDS011;28087;-33.874;151.240;2024-03-29T10:43:00;10.07;;;5.22;;
20794;SDS011;28087;-33.874;151.240;2024-03-29T10:46:07;9.15;;;5.10;;
20794;SDS011;28087;-33.874;151.240;2024-03-29T10:49:13;6.50;;;4.60;;
20794;SDS011;28087;-33.874;151.240;2024-03-29T10:52:19;6.13;;;4.43;;
20794;SDS011;28087;-33.874;151.240;2024-03-29T10:55:26;8.05;;;4.75;;
20794;SDS011;28087;-33.874;151.240;2024-03-29T10:58:33;10.90;;;4.95;;
20794;SDS011;28087;-33.874;151.240;2024-03-29T11:01:40;7.57;;;4.85;;
20794;SDS011;28087;-33.874;151.240;2024-03-29T11:04:44;8.07;;;4.88;;
20794;SDS011;28087;-33.874;151.240;2024-03-29T11:07:50;6.90;;;4.68;;
20794;SDS011;28087;-33.874;151.240;2024-03-29T11:10:58;7.13;;;4.70;;
20794;SDS011;28087;-33.874;151.240;2024-03-29T11:14:02;7.53;;;5.10;;
20794;SDS011;28087;-33.874;151.240;2024-03-29T11:17:06;8.70;;;4.60;;
20794;SDS011;28087;-33.874;151.240;2024-03-29T11:20:10;6.13;;;4.80;;
20794;SDS011;28087;-33.874;151.240;2024-03-29T11:23:18;9.10;;;4.75;;
20794;SDS011;28087;-33.874;151.240;2024-03-29T11:26:24;8.82;;;4.90;;
20794;SDS011;28087;-33.874;151.240;2024-03-29T11:29:29;8.30;;;4.78;;
20794;SDS011;28087;-33.874;151.240;2024-03-29T11:32:36;10.23;;;4.65;;
20794;SDS011;28087;-33.874;151.240;2024-03-29T11:35:41;7.60;;;4.70;;
20794;SDS011;28087;-33.874;151.240;2024-03-29T11:38:47;9.68;;;4.95;;
20794;SDS011;28087;-33.874;151.240;2024-03-29T11:41:52;11.18;;;5.30;;
20794;SDS011;28087;-33.874;151.240;2024-03-29T11:44:56;6.95;;;5.07;;
20794;SDS011;28087;-33.874;151.240;2024-03-29T11:48:02;8.95;;;5.18;;
20794;SDS011;28087;-33.874;151.240;2024-03-29T11:51:12;7.30;;;4.97;;
20794;SDS011;28087;-33.874;151.240;2024-03-29T11:54:18;8.32;;;5.13;;
20794;SDS011;28087;-33.874;151.240;2024-03-29T11:57:25;8.77;;;5.15;;
20794;SDS011;28087;-33.874;151.240;2024-03-29T12:00:33;7.82;;;5.05;;
20794;SDS011;28087;-33.874;151.240;2024-03-29T12:03:41;9.13;;;5.40;;
20794;SDS011;28087;-33.874;151.240;2024-03-29T12:06:49;9.48;;;5.80;;
20794;SDS011;28087;-33.874;151.240;2024-03-29T12:09:53;7.03;;;4.95;;
20794;SDS011;28087;-33.874;151.240;2024-03-29T12:13:00;9.30;;;5.20;;
20794;SDS011;28087;-33.874;151.240;2024-03-29T12:16:04;10.52;;;5.20;;
20794;SDS011;28087;-33.874;151.240;2024-03-29T12:19:08;7.95;;;5.10;;
20794;SDS011;28087;-33.874;151.240;2024-03-29T12:22:13;8.18;;;5.43;;
20794;SDS011;28087;-33.874;151.240;2024-03-29T12:25:16;8.30;;;5.28;;
20794;SDS011;28087;-33.874;151.240;2024-03-29T12:28:26;9.60;;;5.18;;
20794;SDS011;28087;-33.874;151.240;2024-03-29T12:31:30;8.85;;;5.38;;
20794;SDS011;28087;-33.874;151.240;2024-03-29T12:34:34;7.20;;;5.40;;
20794;SDS011;28087;-33.874;151.240;2024-03-29T12:37:46;8.05;;;5.05;;
20794;SDS011;28087;-33.874;151.240;2024-03-29T12:40:53;9.23;;;5.88;;
20794;SDS011;28087;-33.874;151.240;2024-03-29T12:43:58;8.35;;;5.63;;
20794;SDS011;28087;-33.874;151.240;2024-03-29T12:47:04;9.40;;;5.07;;
20794;SDS011;28087;-33.874;151.240;2024-03-29T12:50:09;10.80;;;5.63;;
20794;SDS011;28087;-33.874;151.240;2024-03-29T12:53:13;9.45;;;5.60;;
20794;SDS011;28087;-33.874;151.240;2024-03-29T12:56:11;9.75;;;5.95;;
20794;SDS011;28087;-33.874;151.240;2024-03-29T12:59:12;9.05;;;5.38;;
20794;SDS011;28087;-33.874;151.240;2024-03-29T13:02:17;8.75;;;5.47;;
20794;SDS011;28087;-33.874;151.240;2024-03-29T13:05:23;8.88;;;6.05;;
20794;SDS011;28087;-33.874;151.240;2024-03-29T13:08:32;9.32;;;5.97;;
20794;SDS011;28087;-33.874;151.240;2024-03-29T13:11:36;8.10;;;5.65;;
20794;SDS011;28087;-33.874;151.240;2024-03-29T13:14:43;10.77;;;5.85;;
20794;SDS011;28087;-33.874;151.240;2024-03-29T13:17:47;8.65;;;5.60;;
20794;SDS011;28087;-33.874;151.240;2024-03-29T13:20:50;12.13;;;6.05;;
20794;SDS011;28087;-33.874;151.240;2024-03-29T13:23:55;9.13;;;5.78;;
20794;SDS011;28087;-33.874;151.240;2024-03-29T13:26:59;8.68;;;5.55;;
20794;SDS011;28087;-33.874;151.240;2024-03-29T13:30:10;9.43;;;5.70;;
20794;SDS011;28087;-33.874;151.240;2024-03-29T13:33:13;9.02;;;5.82;;
20794;SDS011;28087;-33.874;151.240;2024-03-29T13:36:17;8.07;;;5.60;;
20794;SDS011;28087;-33.874;151.240;2024-03-29T13:39:22;9.90;;;5.47;;
20794;SDS011;28087;-33.874;151.240;2024-03-29T13:42:26;10.10;;;5.80;;
20794;SDS011;28087;-33.874;151.240;2024-03-29T13:45:31;9.25;;;5.70;;
20794;SDS011;28087;-33.874;151.240;2024-03-29T13:48:34;10.98;;;6.97;;
20794;SDS011;28087;-33.874;151.240;2024-03-29T13:51:40;12.93;;;5.88;;
20794;SDS011;28087;-33.874;151.240;2024-03-29T13:54:44;10.07;;;5.90;;
20794;SDS011;28087;-33.874;151.240;2024-03-29T13:57:48;7.63;;;5.65;;
20794;SDS011;28087;-33.874;151.240;2024-03-29T14:00:55;9.00;;;5.68;;
20794;SDS011;28087;-33.874;151.240;2024-03-29T14:04:00;8.38;;;5.60;;
20794;SDS011;28087;-33.874;151.240;2024-03-29T14:07:04;8.70;;;5.60;;
20794;SDS011;28087;-33.874;151.240;2024-03-29T14:10:09;9.02;;;6.18;;
20794;SDS011;28087;-33.874;151.240;2024-03-29T14:13:15;8.65;;;6.03;;
20794;SDS011;28087;-33.874;151.240;2024-03-29T14:16:22;9.25;;;5.93;;
20794;SDS011;28087;-33.874;151.240;2024-03-29T14:19:26;10.20;;;6.15;;
20794;SDS011;28087;-33.874;151.240;2024-03-29T14:22:30;9.50;;;5.82;;
20794;SDS011;28087;-33.874;151.240;2024-03-29T14:25:35;10.05;;;5.80;;
20794;SDS011;28087;-33.874;151.240;2024-03-29T14:28:39;9.05;;;6.10;;
20794;SDS011;28087;-33.874;151.240;2024-03-29T14:31:45;9.88;;;5.72;;
20794;SDS011;28087;-33.874;151.240;2024-03-29T14:34:48;8.15;;;5.45;;
20794;SDS011;28087;-33.874;151.240;2024-03-29T14:37:54;10.00;;;5.78;;
20794;SDS011;28087;-33.874;151.240;2024-03-29T14:40:59;9.57;;;5.85;;
20794;SDS011;28087;-33.874;151.240;2024-03-29T14:44:04;9.27;;;5.97;;
20794;SDS011;28087;-33.874;151.240;2024-03-29T14:47:09;9.18;;;5.47;;
20794;SDS011;28087;-33.874;151.240;2024-03-29T14:50:14;8.70;;;5.60;;
20794;SDS011;28087;-33.874;151.240;2024-03-29T14:53:18;9.25;;;5.50;;
20794;SDS011;28087;-33.874;151.240;2024-03-29T14:56:23;9.65;;;5.80;;
20794;SDS011;28087;-33.874;151.240;2024-03-29T14:59:27;9.82;;;5.82;;
20794;SDS011;28087;-33.874;151.240;2024-03-29T15:02:32;8.82;;;5.50;;
20794;SDS011;28087;-33.874;151.240;2024-03-29T15:05:36;8.65;;;5.47;;
20794;SDS011;28087;-33.874;151.240;2024-03-29T15:08:40;7.88;;;5.65;;
20794;SDS011;28087;-33.874;151.240;2024-03-29T15:11:44;7.72;;;5.60;;
20794;SDS011;28087;-33.874;151.240;2024-03-29T15:14:49;8.40;;;5.97;;
20794;SDS011;28087;-33.874;151.240;2024-03-29T15:17:55;7.78;;;6.07;;
20794;SDS011;28087;-33.874;151.240;2024-03-29T15:20:59;8.10;;;5.50;;
20794;SDS011;28087;-33.874;151.240;2024-03-29T15:24:05;8.52;;;5.90;;
20794;SDS011;28087;-33.874;151.240;2024-03-29T15:27:11;9.90;;;5.88;;
20794;SDS011;28087;-33.874;151.240;2024-03-29T15:30:43;8.60;;;6.53;;
20794;SDS011;28087;-33.874;151.240;2024-03-29T15:33:52;7.65;;;5.63;;
20794;SDS011;28087;-33.874;151.240;2024-03-29T15:36:58;10.35;;;5.70;;
20794;SDS011;28087;-33.874;151.240;2024-03-29T15:40:02;8.10;;;5.53;;
20794;SDS011;28087;-33.874;151.240;2024-03-29T15:43:00;9.85;;;6.35;;
20794;SDS011;28087;-33.874;151.240;2024-03-29T15:45:57;8.43;;;6.10;;
20794;SDS011;28087;-33.874;151.240;2024-03-29T15:49:02;7.50;;;5.90;;
20794;SDS011;28087;-33.874;151.240;2024-03-29T15:52:07;8.95;;;5.75;;
20794;SDS011;28087;-33.874;151.240;2024-03-29T15:55:04;8.27;;;5.53;;
20794;SDS011;28087;-33.874;151.240;2024-03-29T15:58:09;8.57;;;5.68;;
20794;SDS011;28087;-33.874;151.240;2024-03-29T16:01:13;7.13;;;5.40;;
20794;SDS011;28087;-33.874;151.240;2024-03-29T16:04:18;7.95;;;5.47;;
20794;SDS011;28087;-33.874;151.240;2024-03-29T16:07:22;8.48;;;5.43;;
20794;SDS011;28087;-33.874;151.240;2024-03-29T16:10:26;8.07;;;5.05;;
20794;SDS011;28087;-33.874;151.240;2024-03-29T16:13:30;9.38;;;5.45;;
20794;SDS011;28087;-33.874;151.240;2024-03-29T16:16:38;7.80;;;5.35;;
20794;SDS011;28087;-33.874;151.240;2024-03-29T16:19:39;8.10;;;5.50;;
20794;SDS011;28087;-33.874;151.240;2024-03-29T16:22:29;8.13;;;5.43;;
20794;SDS011;28087;-33.874;151.240;2024-03-29T16:25:33;8.63;;;5.47;;
20794;SDS011;28087;-33.874;151.240;2024-03-29T16:28:32;6.65;;;5.15;;
20794;SDS011;28087;-33.874;151.240;2024-03-29T16:31:30;9.07;;;5.20;;
20794;SDS011;28087;-33.874;151.240;2024-03-29T16:34:36;8.23;;;5.45;;
20794;SDS011;28087;-33.874;151.240;2024-03-29T16:37:43;9.25;;;5.75;;
20794;SDS011;28087;-33.874;151.240;2024-03-29T16:40:46;9.23;;;5.90;;
20794;SDS011;28087;-33.874;151.240;2024-03-29T16:43:50;9.70;;;5.57;;
20794;SDS011;28087;-33.874;151.240;2024-03-29T16:46:53;8.85;;;5.43;;
20794;SDS011;28087;-33.874;151.240;2024-03-29T16:49:57;7.65;;;5.35;;
20794;SDS011;28087;-33.874;151.240;2024-03-29T16:53:04;7.28;;;5.30;;
20794;SDS011;28087;-33.874;151.240;2024-03-29T16:56:09;7.60;;;5.40;;
20794;SDS011;28087;-33.874;151.240;2024-03-29T16:59:12;8.77;;;5.50;;
20794;SDS011;28087;-33.874;151.240;2024-03-29T17:02:16;10.23;;;5.57;;
20794;SDS011;28087;-33.874;151.240;2024-03-29T17:05:19;7.38;;;5.22;;
20794;SDS011;28087;-33.874;151.240;2024-03-29T17:08:25;9.45;;;5.57;;
20794;SDS011;28087;-33.874;151.240;2024-03-29T17:11:29;7.50;;;5.57;;
20794;SDS011;28087;-33.874;151.240;2024-03-29T17:14:33;10.07;;;5.70;;
20794;SDS011;28087;-33.874;151.240;2024-03-29T17:17:38;9.00;;;5.90;;
20794;SDS011;28087;-33.874;151.240;2024-03-29T17:20:36;9.45;;;5.65;;
20794;SDS011;28087;-33.874;151.240;2024-03-29T17:23:34;8.98;;;5.40;;
20794;SDS011;28087;-33.874;151.240;2024-03-29T17:26:38;8.07;;;5.85;;
20794;SDS011;28087;-33.874;151.240;2024-03-29T17:29:36;11.90;;;6.15;;
20794;SDS011;28087;-33.874;151.240;2024-03-29T17:32:33;8.95;;;5.53;;
20794;SDS011;28087;-33.874;151.240;2024-03-29T17:35:37;8.38;;;5.80;;
20794;SDS011;28087;-33.874;151.240;2024-03-29T17:38:42;8.45;;;5.82;;
20794;SDS011;28087;-33.874;151.240;2024-03-29T17:41:46;8.98;;;6.00;;
20794;SDS011;28087;-33.874;151.240;2024-03-29T17:44:51;9.57;;;5.60;;